Belgrade, Minnesota
Current Conditions -  °F | °C
As of 9:53 PM on Thursday 18 Dec 2014 (Local Time) from KPEX Reporting Station
Overcast Overcast  
Wind Chill: 10°   Ceiling: 7500
Heat Index: 17°   Visibility: 10mi
Dew Point: 15°   Wind: 5mph
Humidity: 91%   Direction: 110°ESE
Pressure: 30.23"   Gusts: NA
Location:  45.45°N, 95°W
Report Text: KPEX 190353Z AUTO 11004KT 10SM SCT065 OVC075 M08/M09 A3023 RMK AO2 T10821095
Loading
Personal Weather Stations






























Interactive Weather Map New forecast layout! Learn more

10-Day Weather Forecast

Advertisements
Track Severe Weather on mobile